Airport ICAO


07:25 UTC

12°C

Scattered clouds


An affordable passengers' Moving Map for your aircraft. Made for the iPad and the iPhone
More information here

EGLF Farnborough


Farnborough UNITED KINGDOM   VFR


METAR EGLF 200720Z 18006KT 170V240 9999 SCT043 12/12 Q1019 0h05min

TAF EGLF 200625Z 2006/2015 22008KT 9999 SCT040 PROB30 2006/2008 5000 BR 1h00min





NOTAMS

OPEN